sensor_id;sensor_type;location;lat;lon;timestamp;temperature;humidity
35962;DHT22;22044;48.298;10.008;2023-03-01T00:00:23;-1.10;99.90
35962;DHT22;22044;48.298;10.008;2023-03-01T00:03:08;-1.10;99.90
35962;DHT22;22044;48.298;10.008;2023-03-01T00:05:54;-1.20;99.90
35962;DHT22;22044;48.298;10.008;2023-03-01T00:08:39;-1.20;99.90
35962;DHT22;22044;48.298;10.008;2023-03-01T00:11:26;-1.20;99.90
35962;DHT22;22044;48.298;10.008;2023-03-01T00:14:14;-1.20;99.90
35962;DHT22;22044;48.298;10.008;2023-03-01T00:17:00;-1.20;99.90
35962;DHT22;22044;48.298;10.008;2023-03-01T00:19:45;-1.20;99.90
35962;DHT22;22044;48.298;10.008;2023-03-01T00:22:32;-1.20;99.90
35962;DHT22;22044;48.298;10.008;2023-03-01T00:25:17;-1.10;99.90
35962;DHT22;22044;48.298;10.008;2023-03-01T00:28:03;-1.20;99.90
35962;DHT22;22044;48.298;10.008;2023-03-01T00:30:50;-1.10;99.90
35962;DHT22;22044;48.298;10.008;2023-03-01T00:33:36;-1.10;99.90
35962;DHT22;22044;48.298;10.008;2023-03-01T00:36:24;-1.10;99.90
35962;DHT22;22044;48.298;10.008;2023-03-01T00:39:13;-1.10;99.90
35962;DHT22;22044;48.298;10.008;2023-03-01T00:41:59;-1.10;99.90
35962;DHT22;22044;48.298;10.008;2023-03-01T00:44:44;-1.00;99.90
35962;DHT22;22044;48.298;10.008;2023-03-01T00:47:31;-1.10;99.90
35962;DHT22;22044;48.298;10.008;2023-03-01T00:50:17;-1.10;99.90
35962;DHT22;22044;48.298;10.008;2023-03-01T00:53:03;-1.10;99.90
35962;DHT22;22044;48.298;10.008;2023-03-01T00:55:49;-1.00;99.90
35962;DHT22;22044;48.298;10.008;2023-03-01T00:58:37;-1.00;99.90
35962;DHT22;22044;48.298;10.008;2023-03-01T01:01:25;-1.00;99.90
35962;DHT22;22044;48.298;10.008;2023-03-01T01:04:13;-1.00;99.90
35962;DHT22;22044;48.298;10.008;2023-03-01T01:06:58;-1.00;99.90
35962;DHT22;22044;48.298;10.008;2023-03-01T01:09:44;-1.00;99.90
35962;DHT22;22044;48.298;10.008;2023-03-01T01:12:29;-0.90;99.90
35962;DHT22;22044;48.298;10.008;2023-03-01T01:15:15;-0.90;99.90
35962;DHT22;22044;48.298;10.008;2023-03-01T01:18:01;-0.90;99.90
35962;DHT22;22044;48.298;10.008;2023-03-01T01:20:47;-0.80;99.90
35962;DHT22;22044;48.298;10.008;2023-03-01T01:23:33;-0.80;99.90
35962;DHT22;22044;48.298;10.008;2023-03-01T01:26:20;-0.80;99.90
35962;DHT22;22044;48.298;10.008;2023-03-01T01:29:08;-0.90;99.90
35962;DHT22;22044;48.298;10.008;2023-03-01T01:31:55;-0.90;99.90
35962;DHT22;22044;48.298;10.008;2023-03-01T01:34:41;-0.90;99.90
35962;DHT22;22044;48.298;10.008;2023-03-01T01:37:28;-0.90;99.90
35962;DHT22;22044;48.298;10.008;2023-03-01T01:40:15;-0.80;99.90
35962;DHT22;22044;48.298;10.008;2023-03-01T01:43:01;-0.80;99.90
35962;DHT22;22044;48.298;10.008;2023-03-01T01:45:47;-0.80;99.90
35962;DHT22;22044;48.298;10.008;2023-03-01T01:48:39;-0.90;99.90
35962;DHT22;22044;48.298;10.008;2023-03-01T01:51:28;-0.90;99.90
35962;DHT22;22044;48.298;10.008;2023-03-01T01:54:18;-0.80;99.90
35962;DHT22;22044;48.298;10.008;2023-03-01T01:57:09;-0.80;99.90
35962;DHT22;22044;48.298;10.008;2023-03-01T02:00:00;-0.90;99.90
35962;DHT22;22044;48.298;10.008;2023-03-01T02:03:00;-0.90;99.90
35962;DHT22;22044;48.298;10.008;2023-03-01T02:05:51;-0.90;99.90
35962;DHT22;22044;48.298;10.008;2023-03-01T02:08:40;-0.90;99.90
35962;DHT22;22044;48.298;10.008;2023-03-01T02:11:30;-0.80;99.90
35962;DHT22;22044;48.298;10.008;2023-03-01T02:14:17;-0.90;99.90
35962;DHT22;22044;48.298;10.008;2023-03-01T02:17:03;-0.90;99.90
35962;DHT22;22044;48.298;10.008;2023-03-01T02:19:58;-0.90;99.90
35962;DHT22;22044;48.298;10.008;2023-03-01T02:22:52;-0.90;99.90
35962;DHT22;22044;48.298;10.008;2023-03-01T02:25:45;-0.90;99.90
35962;DHT22;22044;48.298;10.008;2023-03-01T02:28:34;-0.90;99.90
35962;DHT22;22044;48.298;10.008;2023-03-01T02:31:21;-0.90;99.90
35962;DHT22;22044;48.298;10.008;2023-03-01T02:34:25;-0.90;99.90
35962;DHT22;22044;48.298;10.008;2023-03-01T02:37:14;-0.80;99.90
35962;DHT22;22044;48.298;10.008;2023-03-01T02:40:07;-0.80;99.90
35962;DHT22;22044;48.298;10.008;2023-03-01T02:42:58;-0.90;99.90
35962;DHT22;22044;48.298;10.008;2023-03-01T02:45:49;-0.80;99.90
35962;DHT22;22044;48.298;10.008;2023-03-01T02:48:43;-0.90;99.90
35962;DHT22;22044;48.298;10.008;2023-03-01T02:51:42;-0.90;99.90
35962;DHT22;22044;48.298;10.008;2023-03-01T02:54:36;-1.00;99.90
35962;DHT22;22044;48.298;10.008;2023-03-01T02:57:25;-1.00;99.90
35962;DHT22;22044;48.298;10.008;2023-03-01T03:00:13;-1.00;99.90
35962;DHT22;22044;48.298;10.008;2023-03-01T03:03:04;-0.90;99.90
35962;DHT22;22044;48.298;10.008;2023-03-01T03:05:51;-0.90;99.90
35962;DHT22;22044;48.298;10.008;2023-03-01T03:08:36;-1.00;99.90
35962;DHT22;22044;48.298;10.008;2023-03-01T03:11:22;-1.00;99.90
35962;DHT22;22044;48.298;10.008;2023-03-01T03:14:10;-1.00;99.90
35962;DHT22;22044;48.298;10.008;2023-03-01T03:16:57;-0.90;99.90
35962;DHT22;22044;48.298;10.008;2023-03-01T03:19:44;-0.90;99.90
35962;DHT22;22044;48.298;10.008;2023-03-01T03:22:30;-0.90;99.90
35962;DHT22;22044;48.298;10.008;2023-03-01T03:25:18;-0.90;99.90
35962;DHT22;22044;48.298;10.008;2023-03-01T03:28:05;-0.90;99.90
35962;DHT22;22044;48.298;10.008;2023-03-01T03:30:53;-0.90;99.90
35962;DHT22;22044;48.298;10.008;2023-03-01T03:33:39;-0.90;99.90
35962;DHT22;22044;48.298;10.008;2023-03-01T03:36:26;-0.90;99.90
35962;DHT22;22044;48.298;10.008;2023-03-01T03:39:11;-0.90;99.90
35962;DHT22;22044;48.298;10.008;2023-03-01T03:41:57;-0.90;99.90
35962;DHT22;22044;48.298;10.008;2023-03-01T03:44:42;-0.90;99.90
35962;DHT22;22044;48.298;10.008;2023-03-01T03:47:28;-0.90;99.90
35962;DHT22;22044;48.298;10.008;2023-03-01T03:50:15;-0.90;99.90
35962;DHT22;22044;48.298;10.008;2023-03-01T03:53:04;-0.80;99.90
35962;DHT22;22044;48.298;10.008;2023-03-01T03:55:50;-0.90;99.90
35962;DHT22;22044;48.298;10.008;2023-03-01T03:58:36;-0.90;99.90
35962;DHT22;22044;48.298;10.008;2023-03-01T04:01:22;-0.90;99.90
35962;DHT22;22044;48.298;10.008;2023-03-01T04:04:08;-0.90;99.90
35962;DHT22;22044;48.298;10.008;2023-03-01T04:06:53;-0.90;99.90
35962;DHT22;22044;48.298;10.008;2023-03-01T04:09:40;-0.90;99.90
35962;DHT22;22044;48.298;10.008;2023-03-01T04:12:26;-0.90;99.90
35962;DHT22;22044;48.298;10.008;2023-03-01T04:15:12;-0.90;99.90
35962;DHT22;22044;48.298;10.008;2023-03-01T04:18:00;-0.90;99.90
35962;DHT22;22044;48.298;10.008;2023-03-01T04:20:47;-0.90;99.90
35962;DHT22;22044;48.298;10.008;2023-03-01T04:23:32;-0.90;99.90
35962;DHT22;22044;48.298;10.008;2023-03-01T04:26:20;-0.90;99.90
35962;DHT22;22044;48.298;10.008;2023-03-01T04:29:05;-0.90;99.90
35962;DHT22;22044;48.298;10.008;2023-03-01T04:31:51;-0.90;99.90
35962;DHT22;22044;48.298;10.008;2023-03-01T04:34:37;-0.90;99.90
35962;DHT22;22044;48.298;10.008;2023-03-01T04:37:22;-0.90;99.90
35962;DHT22;22044;48.298;10.008;2023-03-01T04:40:11;-0.90;99.90
35962;DHT22;22044;48.298;10.008;2023-03-01T04:43:02;-0.90;99.90
35962;DHT22;22044;48.298;10.008;2023-03-01T04:45:48;-0.90;99.90
35962;DHT22;22044;48.298;10.008;2023-03-01T04:48:35;-0.90;99.90
35962;DHT22;22044;48.298;10.008;2023-03-01T04:51:20;-0.80;99.90
35962;DHT22;22044;48.298;10.008;2023-03-01T04:54:06;-0.90;99.90
35962;DHT22;22044;48.298;10.008;2023-03-01T04:56:53;-0.90;99.90
35962;DHT22;22044;48.298;10.008;2023-03-01T04:59:40;-0.90;99.90
35962;DHT22;22044;48.298;10.008;2023-03-01T05:02:26;-0.90;99.90
35962;DHT22;22044;48.298;10.008;2023-03-01T05:05:12;-0.90;99.90
35962;DHT22;22044;48.298;10.008;2023-03-01T05:08:00;-0.90;99.90
35962;DHT22;22044;48.298;10.008;2023-03-01T05:10:48;-0.90;99.90
35962;DHT22;22044;48.298;10.008;2023-03-01T05:13:34;-0.90;99.90
35962;DHT22;22044;48.298;10.008;2023-03-01T05:16:21;-0.90;99.90
35962;DHT22;22044;48.298;10.008;2023-03-01T05:19:07;-0.90;99.90
35962;DHT22;22044;48.298;10.008;2023-03-01T05:21:59;-0.90;99.90
35962;DHT22;22044;48.298;10.008;2023-03-01T05:24:49;-0.90;99.90
35962;DHT22;22044;48.298;10.008;2023-03-01T05:27:35;-0.90;99.90
35962;DHT22;22044;48.298;10.008;2023-03-01T05:30:20;-0.90;99.90
35962;DHT22;22044;48.298;10.008;2023-03-01T05:33:08;-0.90;99.90
35962;DHT22;22044;48.298;10.008;2023-03-01T05:36:00;-0.90;99.90
35962;DHT22;22044;48.298;10.008;2023-03-01T05:38:45;-0.90;99.90
35962;DHT22;22044;48.298;10.008;2023-03-01T05:41:31;-0.90;99.90
35962;DHT22;22044;48.298;10.008;2023-03-01T05:44:17;-0.90;99.90
35962;DHT22;22044;48.298;10.008;2023-03-01T05:47:02;-0.90;99.90
35962;DHT22;22044;48.298;10.008;2023-03-01T05:49:49;-0.90;99.90
35962;DHT22;22044;48.298;10.008;2023-03-01T05:52:35;-0.90;99.90
35962;DHT22;22044;48.298;10.008;2023-03-01T05:55:21;-0.90;99.90
35962;DHT22;22044;48.298;10.008;2023-03-01T05:58:10;-0.90;99.90
35962;DHT22;22044;48.298;10.008;2023-03-01T06:00:56;-0.90;99.90
35962;DHT22;22044;48.298;10.008;2023-03-01T06:03:42;-0.90;99.90
35962;DHT22;22044;48.298;10.008;2023-03-01T06:06:29;-0.90;99.90
35962;DHT22;22044;48.298;10.008;2023-03-01T06:09:15;-0.90;99.90
35962;DHT22;22044;48.298;10.008;2023-03-01T06:12:00;-0.90;99.90
35962;DHT22;22044;48.298;10.008;2023-03-01T06:14:46;-1.00;99.90
35962;DHT22;22044;48.298;10.008;2023-03-01T06:17:33;-1.00;99.90
35962;DHT22;22044;48.298;10.008;2023-03-01T06:20:23;-1.00;99.90
35962;DHT22;22044;48.298;10.008;2023-03-01T06:23:10;-1.00;99.90
35962;DHT22;22044;48.298;10.008;2023-03-01T06:25:55;-1.00;99.90
35962;DHT22;22044;48.298;10.008;2023-03-01T06:28:41;-1.00;99.90
35962;DHT22;22044;48.298;10.008;2023-03-01T06:31:28;-1.00;99.90
35962;DHT22;22044;48.298;10.008;2023-03-01T06:34:14;-1.10;99.90
35962;DHT22;22044;48.298;10.008;2023-03-01T06:37:00;-1.10;99.90
35962;DHT22;22044;48.298;10.008;2023-03-01T06:39:50;-1.10;99.90
35962;DHT22;22044;48.298;10.008;2023-03-01T06:42:36;-1.10;99.90
35962;DHT22;22044;48.298;10.008;2023-03-01T06:45:21;-1.20;99.90
35962;DHT22;22044;48.298;10.008;2023-03-01T06:48:07;-1.10;99.90
35962;DHT22;22044;48.298;10.008;2023-03-01T06:50:53;-1.20;99.90
35962;DHT22;22044;48.298;10.008;2023-03-01T06:53:38;-1.20;99.90
35962;DHT22;22044;48.298;10.008;2023-03-01T06:56:25;-1.20;99.90
35962;DHT22;22044;48.298;10.008;2023-03-01T06:59:11;-1.20;99.90
35962;DHT22;22044;48.298;10.008;2023-03-01T07:01:56;-1.20;99.90
35962;DHT22;22044;48.298;10.008;2023-03-01T07:04:42;-1.20;99.90
35962;DHT22;22044;48.298;10.008;2023-03-01T07:07:28;-1.20;99.90
35962;DHT22;22044;48.298;10.008;2023-03-01T07:10:13;-1.30;99.90
35962;DHT22;22044;48.298;10.008;2023-03-01T07:13:00;-1.30;99.90
35962;DHT22;22044;48.298;10.008;2023-03-01T07:15:45;-1.30;99.90
35962;DHT22;22044;48.298;10.008;2023-03-01T07:18:31;-1.30;99.90
35962;DHT22;22044;48.298;10.008;2023-03-01T07:21:17;-1.30;99.90
35962;DHT22;22044;48.298;10.008;2023-03-01T07:24:02;-1.30;99.90
35962;DHT22;22044;48.298;10.008;2023-03-01T07:26:49;-1.30;99.90
35962;DHT22;22044;48.298;10.008;2023-03-01T07:29:36;-1.30;99.90
35962;DHT22;22044;48.298;10.008;2023-03-01T07:32:22;-1.20;99.90
35962;DHT22;22044;48.298;10.008;2023-03-01T07:35:08;-1.20;99.90
35962;DHT22;22044;48.298;10.008;2023-03-01T07:37:53;-1.20;99.90
35962;DHT22;22044;48.298;10.008;2023-03-01T07:40:39;-1.20;99.90
35962;DHT22;22044;48.298;10.008;2023-03-01T07:43:25;-1.20;99.90
35962;DHT22;22044;48.298;10.008;2023-03-01T07:46:12;-1.30;99.90
35962;DHT22;22044;48.298;10.008;2023-03-01T07:48:57;-1.20;99.90
35962;DHT22;22044;48.298;10.008;2023-03-01T07:51:43;-1.20;99.90
35962;DHT22;22044;48.298;10.008;2023-03-01T07:54:28;-1.20;99.90
35962;DHT22;22044;48.298;10.008;2023-03-01T07:57:14;-1.20;99.90
35962;DHT22;22044;48.298;10.008;2023-03-01T07:59:59;-1.30;99.90
35962;DHT22;22044;48.298;10.008;2023-03-01T08:02:46;-1.20;99.90
35962;DHT22;22044;48.298;10.008;2023-03-01T08:05:32;-1.20;99.90
35962;DHT22;22044;48.298;10.008;2023-03-01T08:08:17;-1.10;99.90
35962;DHT22;22044;48.298;10.008;2023-03-01T08:11:05;-1.10;99.90
35962;DHT22;22044;48.298;10.008;2023-03-01T08:13:50;-1.20;99.90
35962;DHT22;22044;48.298;10.008;2023-03-01T08:16:37;-1.20;99.90
35962;DHT22;22044;48.298;10.008;2023-03-01T08:19:24;-1.10;99.90
35962;DHT22;22044;48.298;10.008;2023-03-01T08:22:09;-1.10;99.90
35962;DHT22;22044;48.298;10.008;2023-03-01T08:24:55;-1.10;99.90
35962;DHT22;22044;48.298;10.008;2023-03-01T08:27:41;-1.00;99.90
35962;DHT22;22044;48.298;10.008;2023-03-01T08:30:26;-1.00;99.90
35962;DHT22;22044;48.298;10.008;2023-03-01T08:33:12;-0.90;99.90
35962;DHT22;22044;48.298;10.008;2023-03-01T08:36:06;-0.90;99.90
35962;DHT22;22044;48.298;10.008;2023-03-01T08:38:52;-0.90;99.90
35962;DHT22;22044;48.298;10.008;2023-03-01T08:41:38;-0.90;99.90
35962;DHT22;22044;48.298;10.008;2023-03-01T08:44:23;-0.80;99.90
35962;DHT22;22044;48.298;10.008;2023-03-01T08:47:09;-0.80;99.90
35962;DHT22;22044;48.298;10.008;2023-03-01T08:49:54;-0.70;99.90
35962;DHT22;22044;48.298;10.008;2023-03-01T08:52:42;-0.70;99.90
35962;DHT22;22044;48.298;10.008;2023-03-01T08:55:27;-0.70;99.90
35962;DHT22;22044;48.298;10.008;2023-03-01T08:58:13;-0.70;99.90
35962;DHT22;22044;48.298;10.008;2023-03-01T09:00:59;-0.60;99.90
35962;DHT22;22044;48.298;10.008;2023-03-01T09:03:45;-0.60;99.90
35962;DHT22;22044;48.298;10.008;2023-03-01T09:06:31;-0.60;99.90
35962;DHT22;22044;48.298;10.008;2023-03-01T09:09:19;-0.50;99.90
35962;DHT22;22044;48.298;10.008;2023-03-01T09:12:05;-0.50;99.90
35962;DHT22;22044;48.298;10.008;2023-03-01T09:14:50;-0.40;99.90
35962;DHT22;22044;48.298;10.008;2023-03-01T09:17:36;-0.40;99.90
35962;DHT22;22044;48.298;10.008;2023-03-01T09:20:21;-0.50;99.90
35962;DHT22;22044;48.298;10.008;2023-03-01T09:23:07;-0.40;99.90
35962;DHT22;22044;48.298;10.008;2023-03-01T09:25:54;-0.50;99.90
35962;DHT22;22044;48.298;10.008;2023-03-01T09:28:40;-0.40;99.90
35962;DHT22;22044;48.298;10.008;2023-03-01T09:31:26;-0.30;99.90
35962;DHT22;22044;48.298;10.008;2023-03-01T09:34:11;-0.40;99.90
35962;DHT22;22044;48.298;10.008;2023-03-01T09:36:59;-0.30;99.90
35962;DHT22;22044;48.298;10.008;2023-03-01T09:39:46;-0.20;99.90
35962;DHT22;22044;48.298;10.008;2023-03-01T09:42:35;-0.20;99.90
35962;DHT22;22044;48.298;10.008;2023-03-01T09:45:27;-0.10;99.90
35962;DHT22;22044;48.298;10.008;2023-03-01T09:48:17;-0.10;99.90
35962;DHT22;22044;48.298;10.008;2023-03-01T09:51:07;-0.10;99.90
35962;DHT22;22044;48.298;10.008;2023-03-01T09:53:54;0.00;99.90
35962;DHT22;22044;48.298;10.008;2023-03-01T09:56:49;0.00;99.90
35962;DHT22;22044;48.298;10.008;2023-03-01T09:59:49;-0.10;99.90
35962;DHT22;22044;48.298;10.008;2023-03-01T10:02:41;0.00;99.90
35962;DHT22;22044;48.298;10.008;2023-03-01T10:05:37;-0.10;99.90
35962;DHT22;22044;48.298;10.008;2023-03-01T10:08:35;-0.10;99.90
35962;DHT22;22044;48.298;10.008;2023-03-01T10:11:25;-0.10;99.90
35962;DHT22;22044;48.298;10.008;2023-03-01T10:14:19;-0.10;99.90
35962;DHT22;22044;48.298;10.008;2023-03-01T10:17:20;0.00;99.90
35962;DHT22;22044;48.298;10.008;2023-03-01T10:20:21;0.00;99.90
35962;DHT22;22044;48.298;10.008;2023-03-01T10:23:08;0.10;99.90
35962;DHT22;22044;48.298;10.008;2023-03-01T10:26:05;0.10;99.90
35962;DHT22;22044;48.298;10.008;2023-03-01T10:29:00;0.20;99.90
35962;DHT22;22044;48.298;10.008;2023-03-01T10:31:48;0.10;99.90
35962;DHT22;22044;48.298;10.008;2023-03-01T10:34:36;0.30;99.90
35962;DHT22;22044;48.298;10.008;2023-03-01T10:37:21;0.40;99.90
35962;DHT22;22044;48.298;10.008;2023-03-01T10:40:10;0.50;99.90
35962;DHT22;22044;48.298;10.008;2023-03-01T10:42:58;0.40;99.90
35962;DHT22;22044;48.298;10.008;2023-03-01T10:45:45;0.40;99.90
35962;DHT22;22044;48.298;10.008;2023-03-01T10:48:31;0.40;99.90
35962;DHT22;22044;48.298;10.008;2023-03-01T10:51:18;0.50;99.90
35962;DHT22;22044;48.298;10.008;2023-03-01T10:54:06;0.70;99.90
35962;DHT22;22044;48.298;10.008;2023-03-01T10:57:02;0.70;99.90
35962;DHT22;22044;48.298;10.008;2023-03-01T11:00:01;0.50;99.90
35962;DHT22;22044;48.298;10.008;2023-03-01T11:02:51;0.40;99.90
35962;DHT22;22044;48.298;10.008;2023-03-01T11:05:59;0.60;99.90
35962;DHT22;22044;48.298;10.008;2023-03-01T11:08:48;0.50;99.90
35962;DHT22;22044;48.298;10.008;2023-03-01T11:11:35;0.60;99.90
35962;DHT22;22044;48.298;10.008;2023-03-01T11:14:22;0.90;99.90
35962;DHT22;22044;48.298;10.008;2023-03-01T11:17:14;1.00;99.90
35962;DHT22;22044;48.298;10.008;2023-03-01T11:20:02;1.00;99.90
35962;DHT22;22044;48.298;10.008;2023-03-01T11:22:53;1.40;99.90
35962;DHT22;22044;48.298;10.008;2023-03-01T11:25:42;1.40;99.90
35962;DHT22;22044;48.298;10.008;2023-03-01T11:28:29;1.30;99.90
35962;DHT22;22044;48.298;10.008;2023-03-01T11:31:15;1.20;99.90
35962;DHT22;22044;48.298;10.008;2023-03-01T11:34:09;1.10;99.90
35962;DHT22;22044;48.298;10.008;2023-03-01T11:37:00;1.20;99.90
35962;DHT22;22044;48.298;10.008;2023-03-01T11:39:55;1.10;99.90
35962;DHT22;22044;48.298;10.008;2023-03-01T11:42:53;1.10;99.90
35962;DHT22;22044;48.298;10.008;2023-03-01T11:45:51;1.30;99.90
35962;DHT22;22044;48.298;10.008;2023-03-01T11:48:52;1.50;99.90
35962;DHT22;22044;48.298;10.008;2023-03-01T11:51:51;1.90;99.90
35962;DHT22;22044;48.298;10.008;2023-03-01T11:54:49;1.80;99.90
35962;DHT22;22044;48.298;10.008;2023-03-01T11:58:00;2.00;99.90
35962;DHT22;22044;48.298;10.008;2023-03-01T12:01:00;2.50;99.90
35962;DHT22;22044;48.298;10.008;2023-03-01T12:07:09;2.40;99.90
35962;DHT22;22044;48.298;10.008;2023-03-01T12:10:13;2.60;99.90
35962;DHT22;22044;48.298;10.008;2023-03-01T12:13:17;2.40;99.90
35962;DHT22;22044;48.298;10.008;2023-03-01T12:16:36;2.60;99.90
35962;DHT22;22044;48.298;10.008;2023-03-01T12:19:37;2.70;99.90
35962;DHT22;22044;48.298;10.008;2023-03-01T12:22:30;2.90;99.90
35962;DHT22;22044;48.298;10.008;2023-03-01T12:25:23;2.80;99.90
35962;DHT22;22044;48.298;10.008;2023-03-01T12:31:41;3.50;99.90
35962;DHT22;22044;48.298;10.008;2023-03-01T12:35:03;3.30;99.90
35962;DHT22;22044;48.298;10.008;2023-03-01T12:37:56;3.20;99.90
35962;DHT22;22044;48.298;10.008;2023-03-01T12:41:01;3.50;99.90
35962;DHT22;22044;48.298;10.008;2023-03-01T12:44:00;3.70;99.90
35962;DHT22;22044;48.298;10.008;2023-03-01T12:47:17;4.00;99.90
35962;DHT22;22044;48.298;10.008;2023-03-01T12:50:11;3.90;99.90
35962;DHT22;22044;48.298;10.008;2023-03-01T12:52:58;3.80;99.90
35962;DHT22;22044;48.298;10.008;2023-03-01T12:55:44;3.90;99.90
35962;DHT22;22044;48.298;10.008;2023-03-01T12:58:32;3.90;99.90
35962;DHT22;22044;48.298;10.008;2023-03-01T13:01:33;4.10;99.90
35962;DHT22;22044;48.298;10.008;2023-03-01T13:04:35;4.10;99.90
35962;DHT22;22044;48.298;10.008;2023-03-01T13:07:28;4.10;99.90
35962;DHT22;22044;48.298;10.008;2023-03-01T13:10:21;4.10;99.90
35962;DHT22;22044;48.298;10.008;2023-03-01T13:13:20;4.30;99.90
35962;DHT22;22044;48.298;10.008;2023-03-01T13:16:40;4.10;99.90
35962;DHT22;22044;48.298;10.008;2023-03-01T13:19:27;4.20;99.90
35962;DHT22;22044;48.298;10.008;2023-03-01T13:22:29;4.20;99.90
35962;DHT22;22044;48.298;10.008;2023-03-01T13:25:19;4.30;99.90
35962;DHT22;22044;48.298;10.008;2023-03-01T13:28:39;4.30;99.90
35962;DHT22;22044;48.298;10.008;2023-03-01T13:31:59;4.30;99.90
35962;DHT22;22044;48.298;10.008;2023-03-01T13:34:57;4.40;99.90
35962;DHT22;22044;48.298;10.008;2023-03-01T13:37:44;4.50;99.90
35962;DHT22;22044;48.298;10.008;2023-03-01T13:40:57;4.40;99.90
35962;DHT22;22044;48.298;10.008;2023-03-01T13:43:45;4.50;99.90
35962;DHT22;22044;48.298;10.008;2023-03-01T13:46:32;4.40;99.90
35962;DHT22;22044;48.298;10.008;2023-03-01T13:49:22;4.40;99.90
35962;DHT22;22044;48.298;10.008;2023-03-01T13:52:37;4.30;99.90
35962;DHT22;22044;48.298;10.008;2023-03-01T13:55:27;4.30;99.90
35962;DHT22;22044;48.298;10.008;2023-03-01T13:58:21;4.30;99.90
35962;DHT22;22044;48.298;10.008;2023-03-01T14:01:18;4.40;99.90
35962;DHT22;22044;48.298;10.008;2023-03-01T14:04:20;4.40;99.90
35962;DHT22;22044;48.298;10.008;2023-03-01T14:07:11;4.40;99.90
35962;DHT22;22044;48.298;10.008;2023-03-01T14:10:00;4.40;99.90
35962;DHT22;22044;48.298;10.008;2023-03-01T14:12:49;4.60;99.90
35962;DHT22;22044;48.298;10.008;2023-03-01T14:15:41;4.70;99.90
35962;DHT22;22044;48.298;10.008;2023-03-01T14:18:33;4.70;99.90
35962;DHT22;22044;48.298;10.008;2023-03-01T14:21:22;4.70;99.90
35962;DHT22;22044;48.298;10.008;2023-03-01T14:24:17;4.70;99.90
35962;DHT22;22044;48.298;10.008;2023-03-01T14:27:03;4.50;99.90
35962;DHT22;22044;48.298;10.008;2023-03-01T14:29:56;4.60;99.90
35962;DHT22;22044;48.298;10.008;2023-03-01T14:32:42;4.60;99.90
35962;DHT22;22044;48.298;10.008;2023-03-01T14:35:30;4.60;99.90
35962;DHT22;22044;48.298;10.008;2023-03-01T14:38:21;4.60;99.90
35962;DHT22;22044;48.298;10.008;2023-03-01T14:41:09;4.60;99.90
35962;DHT22;22044;48.298;10.008;2023-03-01T14:43:57;4.70;99.90
35962;DHT22;22044;48.298;10.008;2023-03-01T14:46:44;4.70;99.90
35962;DHT22;22044;48.298;10.008;2023-03-01T14:49:31;4.80;99.90
35962;DHT22;22044;48.298;10.008;2023-03-01T14:52:20;4.80;99.90
35962;DHT22;22044;48.298;10.008;2023-03-01T14:55:16;4.80;99.90
35962;DHT22;22044;48.298;10.008;2023-03-01T14:58:04;4.80;99.90
35962;DHT22;22044;48.298;10.008;2023-03-01T15:00:53;4.90;99.90
35962;DHT22;22044;48.298;10.008;2023-03-01T15:03:42;5.00;99.90
35962;DHT22;22044;48.298;10.008;2023-03-01T15:06:28;5.10;99.90
35962;DHT22;22044;48.298;10.008;2023-03-01T15:09:15;5.20;99.90
35962;DHT22;22044;48.298;10.008;2023-03-01T15:12:33;5.20;99.90
35962;DHT22;22044;48.298;10.008;2023-03-01T15:15:23;5.10;99.90
35962;DHT22;22044;48.298;10.008;2023-03-01T15:18:18;5.20;99.90
35962;DHT22;22044;48.298;10.008;2023-03-01T15:21:09;5.10;99.90
35962;DHT22;22044;48.298;10.008;2023-03-01T15:23:59;5.00;99.90
35962;DHT22;22044;48.298;10.008;2023-03-01T15:26:50;5.10;99.90
35962;DHT22;22044;48.298;10.008;2023-03-01T15:29:40;5.00;99.90
35962;DHT22;22044;48.298;10.008;2023-03-01T15:32:34;5.00;99.90
35962;DHT22;22044;48.298;10.008;2023-03-01T15:35:40;5.00;99.90
35962;DHT22;22044;48.298;10.008;2023-03-01T15:38:32;5.00;99.90
35962;DHT22;22044;48.298;10.008;2023-03-01T15:41:23;5.00;99.90
35962;DHT22;22044;48.298;10.008;2023-03-01T15:44:18;4.90;99.90
35962;DHT22;22044;48.298;10.008;2023-03-01T15:47:25;4.90;99.90
35962;DHT22;22044;48.298;10.008;2023-03-01T15:50:18;4.80;99.90
35962;DHT22;22044;48.298;10.008;2023-03-01T15:53:06;4.90;99.90
35962;DHT22;22044;48.298;10.008;2023-03-01T15:55:52;4.80;99.90
35962;DHT22;22044;48.298;10.008;2023-03-01T15:58:38;4.70;99.90
35962;DHT22;22044;48.298;10.008;2023-03-01T16:01:24;4.80;99.90
35962;DHT22;22044;48.298;10.008;2023-03-01T16:04:12;4.70;99.90
35962;DHT22;22044;48.298;10.008;2023-03-01T16:07:04;4.50;99.90
35962;DHT22;22044;48.298;10.008;2023-03-01T16:09:50;4.50;99.90
35962;DHT22;22044;48.298;10.008;2023-03-01T16:12:36;4.40;99.90
35962;DHT22;22044;48.298;10.008;2023-03-01T16:15:24;4.40;99.90
35962;DHT22;22044;48.298;10.008;2023-03-01T16:18:11;4.40;99.90
35962;DHT22;22044;48.298;10.008;2023-03-01T16:20:58;4.40;99.90
35962;DHT22;22044;48.298;10.008;2023-03-01T16:23:45;4.30;99.90
35962;DHT22;22044;48.298;10.008;2023-03-01T16:26:30;4.30;99.90
35962;DHT22;22044;48.298;10.008;2023-03-01T16:29:16;4.20;99.90
35962;DHT22;22044;48.298;10.008;2023-03-01T16:32:02;4.20;99.90
35962;DHT22;22044;48.298;10.008;2023-03-01T16:34:48;4.10;99.90
35962;DHT22;22044;48.298;10.008;2023-03-01T16:37:35;4.10;99.90
35962;DHT22;22044;48.298;10.008;2023-03-01T16:40:23;4.10;99.90
35962;DHT22;22044;48.298;10.008;2023-03-01T16:43:08;4.10;99.90
35962;DHT22;22044;48.298;10.008;2023-03-01T16:45:55;4.00;99.90
35962;DHT22;22044;48.298;10.008;2023-03-01T16:48:40;4.00;99.90
35962;DHT22;22044;48.298;10.008;2023-03-01T16:51:26;4.00;99.90
35962;DHT22;22044;48.298;10.008;2023-03-01T16:54:15;4.00;99.90
35962;DHT22;22044;48.298;10.008;2023-03-01T16:57:00;4.00;99.90
35962;DHT22;22044;48.298;10.008;2023-03-01T16:59:46;4.00;99.90
35962;DHT22;22044;48.298;10.008;2023-03-01T17:02:31;4.10;99.90
35962;DHT22;22044;48.298;10.008;2023-03-01T17:05:17;4.10;99.90
35962;DHT22;22044;48.298;10.008;2023-03-01T17:08:04;4.10;99.90
35962;DHT22;22044;48.298;10.008;2023-03-01T17:10:51;4.10;99.90
35962;DHT22;22044;48.298;10.008;2023-03-01T17:13:38;4.10;99.90
35962;DHT22;22044;48.298;10.008;2023-03-01T17:16:23;4.00;99.90
35962;DHT22;22044;48.298;10.008;2023-03-01T17:19:10;4.00;99.90
35962;DHT22;22044;48.298;10.008;2023-03-01T17:22:01;4.00;99.90
35962;DHT22;22044;48.298;10.008;2023-03-01T17:24:49;4.10;99.90
35962;DHT22;22044;48.298;10.008;2023-03-01T17:27:37;4.00;99.90
35962;DHT22;22044;48.298;10.008;2023-03-01T17:30:23;4.00;99.90
35962;DHT22;22044;48.298;10.008;2023-03-01T17:33:09;4.00;99.90
35962;DHT22;22044;48.298;10.008;2023-03-01T17:35:54;4.00;99.90
35962;DHT22;22044;48.298;10.008;2023-03-01T17:38:40;4.00;99.90
35962;DHT22;22044;48.298;10.008;2023-03-01T17:41:26;4.00;99.90
35962;DHT22;22044;48.298;10.008;2023-03-01T17:44:13;4.00;99.90
35962;DHT22;22044;48.298;10.008;2023-03-01T17:46:58;4.00;99.90